Adelaide, South Australia

2:08 AM CST on August 31, 2014 (GMT +0930)
West Beach | Change Station
CLOSE
Current Station
Personal Weather Station
Location: West Beach, SOUTH AUSTRALIA
Elevation: 26 ft
Nearby Weather Stations

Elev 26 ft 34.94 °S, 138.51 °E | Updated 2 minutes ago

Clear
Clear
57.0 °F
Feels Like 57.0 °F
N
0.7
Wind Variable Wind from NE
Gusts 2.2 mph

Today
High -- | Low -- °F
--% Chance of Precip.
Yesterday
High -- | Low -- °F
Precip. -- in
6:37 AM 5:56 PM
Waxing Crescent, 23% visible
Pressure 30.01 in
Visibility -9999.0 miles
Clouds
Dew Point 41 °F
Humidity 55%
Rainfall 0.00 in
Snow Depth Not available.
UV Not available.
Pollen Not available.
Air Quality Not available.
Flu Activity Not available.
METAR YPAD 301600Z 05007KT CAVOK 12/03 Q1016 NOSIG

More Conditions Fewer Conditions

Pressure 30.01 in
Visibility -9999.0 miles
Clouds
Dew Point 41 °F
Humidity 55%
Rainfall 0.00 in
Snow Depth Not available.
UV Not available.
Pollen Not available.
Air Quality Not available.
Flu Activity Not available.
METAR YPAD 301600Z 05007KT CAVOK 12/03 Q1016 NOSIG

More Conditions Fewer Conditions

10-Day Weather Forecast

Almanac

Astronomy

Aug. 31, 2014 Rise Set
Actual Time 6:37 AM CST 5:56 PM CST
Civil Twilight 6:11 AM CST 6:21 PM CST
Nautical Twilight 5:42 AM CST 6:50 PM CST
Astronomical Twilight 5:13 AM CST 7:20 PM CST
Moon 9:28 AM CST (8/31) 11:11 PM CST (8/31)
Length of Visible Light 12h 09m
Length of Day
11h 19m
Tomorrow will be 2m 3s longer.
Waxing Crescent, 23% of the Moon is Illuminated
Aug 30
Waxing Crescent
Sep 2
First Quarter
Sep 8
Full
Sep 15
Last Quarter
Sep 24
New

Yesterday's Extremes

Country Highs Country Lows

Community

WunderPhotos

Upload Photos

1,748,557 photos uploaded!

WunderBlogs® & News

Nearby

Snow Depth

Not available.

Earthquake Activity

City Distance Mag. Time & Date
No recent earthquake activity has been reported nearby.
Minimum magnitude displayed is 2.5.

Coastal Water Temperatures

Place Temperature
No Stations Reporting

Nearby Weather Stations